Aviation Digital Data Service (ADDS)

Output produced by METARs form (0531 UTC 16 February 2019)
found at http://www.aviationweather.gov/metar/data/
 
Forecast for: RPVK (KALIBO/PANAY ISL, PH)
Text: TAF RPVK 152300Z 1600/1624 05008KT 9999 FEW016 SCT080 BKN240
Forecast period: 0000 UTC 16 February 2019 to 0000 UTC 17 February 2019
Forecast type: FROM: standard forecast or significant change
Winds: from the NE (50 degrees) at 9 MPH (8 knots; 4.1 m/s)
Visibility: 6 or more miles 10+ km)
Ceiling: 24000 feet AGL
Clouds: few clouds at 1600 feet AGL
scattered clouds at 8000 feet AGL
broken clouds at 24000 feet AGL
Weather: no significant weather forecast for this period
Text: TEMPO 1600/16O6 07014KT -SHRA SCT016 OVC070
Forecast period: 0000 UTC 16 February 2019 to 0000 UTC 17 February 2019
Forecast type: FROM: standard forecast or significant change
Visibility: missing
Ceiling: unknown
Clouds: missing
Weather: no significant weather forecast for this period